Time;durP1;ratioP1;P1;durP2;ratioP2;P2;SDS_P1;SDS_P2;PMS_P1;PMS_P2;Temp;Humidity;BMP_temperature;BMP_pressure;BME280_temperature;BME280_humidity;BME280_pressure;Samples;Min_cycle;Max_cycle;Signal;HPM_P1;HPM_P2
2023/06/30 00:00:15;;;;;;;2.42;2.08;;;21.10;93.60;21.30;100156.00;;;;4974031;28;94846;-70
2023/06/30 00:02:46;;;;;;;1.63;1.45;;;21.10;93.80;21.30;100165.00;;;;4968946;28;93880;-71
2023/06/30 00:05:13;;;;;;;2.47;2.28;;;21.10;93.90;21.30;100157.00;;;;4968098;28;92867;-71
2023/06/30 00:07:39;;;;;;;2.33;2.13;;;21.10;94.00;21.30;100149.00;;;;4969218;28;92910;-71
2023/06/30 00:10:07;;;;;;;2.75;1.83;;;21.10;94.10;21.30;100146.00;;;;4968411;28;93200;-71
2023/06/30 00:12:33;;;;;;;1.70;1.60;;;21.10;94.30;21.30;100145.00;;;;4969949;28;112453;-71
2023/06/30 00:15:00;;;;;;;2.78;1.90;;;21.10;94.40;21.30;100150.00;;;;4968078;28;93228;-71
2023/06/30 00:17:25;;;;;;;1.85;1.75;;;21.10;94.50;21.30;100149.00;;;;4984685;28;93185;-70
2023/06/30 00:19:51;;;;;;;2.75;2.03;;;21.10;94.60;21.30;100142.00;;;;4968087;28;118956;-71
2023/06/30 00:22:21;;;;;;;3.35;2.20;;;21.10;94.70;21.30;100141.00;;;;4967787;28;121695;-70
2023/06/30 00:24:49;;;;;;;1.98;1.77;;;21.10;94.90;21.20;100142.00;;;;4968647;28;92865;-71
2023/06/30 00:27:14;;;;;;;2.00;1.90;;;21.10;95.10;21.20;100142.00;;;;4983060;28;95567;-71
2023/06/30 00:29:40;;;;;;;1.80;1.70;;;21.00;95.10;21.20;100137.00;;;;4968189;28;122328;-71
2023/06/30 00:32:06;;;;;;;1.73;1.63;;;21.00;95.20;21.20;100138.00;;;;4966523;28;116467;-71
2023/06/30 00:34:32;;;;;;;1.95;1.83;;;21.00;95.60;21.10;100137.00;;;;4970577;28;97103;-71
2023/06/30 00:36:57;;;;;;;3.17;1.65;;;21.00;96.00;21.10;100133.00;;;;4970173;28;107612;-71
2023/06/30 00:39:23;;;;;;;2.03;1.58;;;20.90;96.30;21.00;100130.00;;;;4966068;28;123202;-71
2023/06/30 00:41:48;;;;;;;2.92;2.13;;;20.90;96.50;21.00;100134.00;;;;4968839;28;112697;-71
2023/06/30 00:44:14;;;;;;;2.35;2.15;;;20.90;96.80;21.00;100126.00;;;;4966236;28;110253;-70
2023/06/30 00:46:40;;;;;;;1.77;1.67;;;20.80;97.10;21.00;100125.00;;;;4969649;28;93011;-71
2023/06/30 00:49:06;;;;;;;3.72;2.55;;;20.80;97.20;20.90;100120.00;;;;4967964;28;93182;-71
2023/06/30 00:51:32;;;;;;;1.88;1.75;;;20.80;97.30;20.80;100122.00;;;;4972084;28;106147;-71
2023/06/30 00:53:58;;;;;;;2.00;1.70;;;20.70;97.40;20.80;100117.00;;;;4970773;27;93222;-71
2023/06/30 00:56:23;;;;;;;2.75;2.30;;;20.60;97.40;20.70;100125.00;;;;4984091;27;108310;-71
2023/06/30 00:58:57;;;;;;;4.90;2.55;;;20.50;97.50;20.60;100127.00;;;;4969591;28;111704;-71
2023/06/30 01:01:40;;;;;;;3.65;2.85;;;20.50;97.50;20.50;100115.00;;;;4970504;28;92994;-70
2023/06/30 01:04:41;;;;;;;2.70;2.28;;;20.40;97.50;20.50;100117.00;;;;4975897;28;93222;-71
2023/06/30 01:07:32;;;;;;;2.50;1.95;;;20.40;97.60;20.50;100111.00;;;;4973145;28;92927;-70
2023/06/30 01:10:08;;;;;;;3.97;2.25;;;20.30;97.70;20.50;100099.00;;;;4964311;28;92815;-71
2023/06/30 01:12:34;;;;;;;2.08;1.52;;;20.40;97.80;20.50;100097.00;;;;4969577;28;103445;-71
2023/06/30 01:15:02;;;;;;;2.90;2.67;;;20.30;97.80;20.50;100099.00;;;;4987977;27;110687;-70
2023/06/30 01:17:29;;;;;;;2.47;2.28;;;20.40;98.00;20.60;100091.00;;;;4973504;28;93811;-71
2023/06/30 01:19:55;;;;;;;2.30;2.10;;;20.40;98.10;20.60;100085.00;;;;4973403;28;122201;-71
2023/06/30 01:22:28;;;;;;;2.83;2.63;;;20.40;98.20;20.60;100081.00;;;;4969662;28;92951;-70
2023/06/30 01:24:58;;;;;;;1.98;1.77;;;20.40;98.40;20.50;100083.00;;;;4971612;28;101784;-71
2023/06/30 01:27:24;;;;;;;2.83;2.42;;;20.40;98.50;20.50;100095.00;;;;4969106;28;93185;-71
2023/06/30 01:29:51;;;;;;;2.75;2.42;;;20.40;98.50;20.50;100094.00;;;;4970950;28;121766;-70
2023/06/30 01:32:17;;;;;;;3.53;2.53;;;20.40;98.60;20.60;100096.00;;;;4974615;28;93852;-71
2023/06/30 01:34:47;;;;;;;2.83;2.63;;;20.40;98.70;20.60;100092.00;;;;4974408;28;110337;-71
2023/06/30 01:37:14;;;;;;;2.40;2.20;;;20.40;98.80;20.60;100086.00;;;;4973045;28;93033;-71
2023/06/30 01:39:42;;;;;;;2.45;2.15;;;20.40;98.90;20.60;100084.00;;;;4968209;28;94485;-70
2023/06/30 01:42:09;;;;;;;2.95;2.55;;;20.40;98.90;20.60;100074.00;;;;4973129;28;93742;-71
2023/06/30 01:44:36;;;;;;;2.45;2.10;;;20.50;99.00;20.60;100077.00;;;;4972527;28;96686;-71
2023/06/30 01:47:02;;;;;;;2.30;2.10;;;20.40;99.00;20.70;100070.00;;;;4973998;28;92881;-71
2023/06/30 01:49:33;;;;;;;3.03;2.72;;;20.50;99.00;20.70;100077.00;;;;4987716;28;103338;-71
2023/06/30 01:51:59;;;;;;;2.80;1.75;;;20.50;99.20;20.70;100075.00;;;;4970796;28;93089;-71
2023/06/30 01:54:24;;;;;;;9.95;2.50;;;20.50;99.10;20.70;100076.00;;;;4967259;28;109826;-71
2023/06/30 01:56:50;;;;;;;2.58;1.77;;;20.50;99.10;20.70;100078.00;;;;4971678;28;108504;-71
2023/06/30 01:59:16;;;;;;;3.33;2.53;;;20.50;99.10;20.70;100078.00;;;;4971182;28;122575;-71
2023/06/30 02:01:42;;;;;;;2.75;2.53;;;20.50;99.10;20.70;100079.00;;;;4972722;28;92963;-70
2023/06/30 02:04:09;;;;;;;2.40;2.20;;;20.50;99.10;20.70;100073.00;;;;4971368;28;95628;-71
2023/06/30 02:06:35;;;;;;;2.97;2.45;;;20.50;99.20;20.70;100067.00;;;;4971139;28;93909;-71
2023/06/30 02:09:01;;;;;;;3.08;2.80;;;20.50;99.40;20.70;100074.00;;;;4972788;28;110203;-71
2023/06/30 02:11:26;;;;;;;2.10;1.70;;;20.50;99.50;20.70;100075.00;;;;4968560;28;122615;-70
2023/06/30 02:13:52;;;;;;;2.35;2.08;;;20.50;99.60;20.70;100070.00;;;;4974205;28;108923;-71
2023/06/30 02:16:18;;;;;;;2.40;1.73;;;20.50;99.70;20.70;100064.00;;;;4965304;28;105446;-71
2023/06/30 02:18:43;;;;;;;5.05;2.08;;;20.50;99.80;20.70;100075.00;;;;4970196;28;122467;-71
2023/06/30 02:21:09;;;;;;;2.17;1.98;;;20.50;99.80;20.70;100060.00;;;;4970129;28;121346;-70
2023/06/30 02:23:35;;;;;;;3.22;2.38;;;20.40;99.80;20.60;100075.00;;;;4968433;28;110594;-70
2023/06/30 02:26:00;;;;;;;1.63;1.52;;;20.50;99.90;20.60;100059.00;;;;4968542;28;110381;-70
2023/06/30 02:28:26;;;;;;;2.92;2.25;;;20.40;99.90;20.50;100057.00;;;;4971244;28;93380;-71
2023/06/30 02:30:53;;;;;;;3.25;1.80;;;20.40;99.90;20.50;100059.00;;;;4969858;28;93889;-71
2023/06/30 02:33:19;;;;;;;2.42;2.22;;;20.40;99.90;20.50;100055.00;;;;4969363;28;93138;-70
2023/06/30 02:35:45;;;;;;;3.38;2.30;;;20.30;99.90;20.40;100053.00;;;;4968961;28;92995;-70
2023/06/30 02:38:10;;;;;;;2.38;1.80;;;20.30;99.90;20.40;100059.00;;;;4967625;28;123374;-71
2023/06/30 02:40:36;;;;;;;1.83;1.60;;;20.30;99.90;20.40;100045.00;;;;4958439;28;122483;-71
2023/06/30 02:43:02;;;;;;;3.45;2.28;;;20.20;99.90;20.40;100047.00;;;;4964400;28;93102;-70
2023/06/30 02:45:28;;;;;;;2.13;1.92;;;20.20;99.90;20.30;100055.00;;;;4981488;28;93224;-71
2023/06/30 02:47:54;;;;;;;2.25;2.13;;;20.20;99.90;20.30;100063.00;;;;4988424;27;93825;-71
2023/06/30 02:50:29;;;;;;;4.55;2.58;;;20.10;99.90;20.20;100058.00;;;;4978798;27;123540;-72
2023/06/30 02:53:01;;;;;;;5.00;2.35;;;20.10;99.90;20.20;100051.00;;;;4974022;27;92921;-71
2023/06/30 02:55:33;;;;;;;3.72;2.45;;;20.10;99.90;20.20;100059.00;;;;4985950;27;108936;-71
2023/06/30 02:57:58;;;;;;;3.05;1.90;;;20.10;99.90;20.20;100060.00;;;;4987429;27;94099;-71
2023/06/30 03:00:24;;;;;;;2.28;2.08;;;20.10;99.90;20.20;100063.00;;;;4957486;28;122219;-71
2023/06/30 03:02:50;;;;;;;2.53;2.03;;;20.10;99.90;20.20;100050.00;;;;4989836;27;92992;-71
2023/06/30 03:05:16;;;;;;;2.42;2.22;;;20.10;99.90;20.20;100053.00;;;;4973742;28;92779;-71
2023/06/30 03:07:41;;;;;;;3.20;2.33;;;20.00;99.90;20.10;100043.00;;;;4991155;27;123071;-70
2023/06/30 03:10:08;;;;;;;9.23;2.28;;;20.00;99.90;20.10;100049.00;;;;4990349;27;114463;-71
2023/06/30 03:12:33;;;;;;;3.70;2.80;;;19.90;99.90;20.00;100053.00;;;;4992206;27;92310;-71
2023/06/30 03:14:59;;;;;;;3.80;3.15;;;19.90;99.90;20.00;100056.00;;;;4959821;28;107689;-71
2023/06/30 03:17:25;;;;;;;3.15;2.20;;;19.90;99.90;20.00;100062.00;;;;4990395;27;122046;-71
2023/06/30 03:19:50;;;;;;;2.15;2.05;;;19.90;99.90;20.00;100061.00;;;;4987481;27;122501;-71
2023/06/30 03:22:16;;;;;;;3.92;2.33;;;19.80;99.90;19.90;100058.00;;;;4986323;27;110053;-71
2023/06/30 03:24:41;;;;;;;3.33;1.95;;;19.80;99.90;19.90;100053.00;;;;4987749;27;102958;-71
2023/06/30 03:27:07;;;;;;;2.45;1.80;;;19.80;99.90;19.90;100057.00;;;;4988381;27;122025;-71
2023/06/30 03:29:33;;;;;;;2.80;2.60;;;19.80;99.90;19.90;100055.00;;;;4991235;27;122477;-71
2023/06/30 03:31:58;;;;;;;2.67;2.47;;;19.80;99.90;19.90;100056.00;;;;4976662;27;110841;-71
2023/06/30 03:34:24;;;;;;;2.30;2.08;;;19.80;99.90;20.00;100045.00;;;;4984548;28;106700;-71
2023/06/30 03:36:50;;;;;;;3.15;2.28;;;19.80;99.90;20.00;100048.00;;;;4988114;27;119607;-72
2023/06/30 03:39:16;;;;;;;2.55;2.25;;;19.80;99.90;20.00;100056.00;;;;4987169;27;93096;-71
2023/06/30 03:41:41;;;;;;;2.63;2.42;;;19.90;99.90;20.00;100052.00;;;;4988722;27;110031;-71
2023/06/30 03:44:07;;;;;;;4.13;2.70;;;20.00;99.90;20.10;100052.00;;;;4952478;27;107238;-71
2023/06/30 03:46:33;;;;;;;2.85;2.40;;;20.10;99.90;20.10;100052.00;;;;4988299;27;108297;-71
2023/06/30 03:48:59;;;;;;;2.60;2.40;;;19.90;99.90;20.10;100048.00;;;;4988693;27;92950;-71
2023/06/30 03:51:24;;;;;;;2.25;2.05;;;20.00;99.90;20.20;100065.00;;;;4986933;27;92740;-71
2023/06/30 03:53:50;;;;;;;3.38;2.17;;;20.00;99.90;20.20;100063.00;;;;4990477;27;104458;-70
2023/06/30 03:56:16;;;;;;;1.98;1.80;;;20.00;99.90;20.20;100065.00;;;;4986196;27;121225;-71
2023/06/30 03:58:42;;;;;;;2.55;2.35;;;20.00;99.90;20.20;100058.00;;;;4987711;27;103478;-71
2023/06/30 04:01:07;;;;;;;4.97;2.10;;;20.00;99.90;20.20;100063.00;;;;4990559;27;92183;-71
2023/06/30 04:03:33;;;;;;;3.95;2.70;;;20.10;99.90;20.20;100055.00;;;;4973799;27;107653;-70
2023/06/30 04:05:59;;;;;;;3.10;2.33;;;20.10;99.90;20.30;100063.00;;;;4988766;27;104611;-71
2023/06/30 04:08:25;;;;;;;4.20;2.90;;;20.10;99.90;20.30;100060.00;;;;4988484;27;122837;-71
2023/06/30 04:10:51;;;;;;;3.15;2.35;;;20.10;99.90;20.30;100063.00;;;;4989171;27;101822;-71
2023/06/30 04:13:16;;;;;;;3.05;2.53;;;20.10;99.90;20.30;100069.00;;;;4988164;27;109328;-70
2023/06/30 04:15:42;;;;;;;2.67;2.45;;;20.20;99.90;20.30;100076.00;;;;4989889;27;122168;-71
2023/06/30 04:18:08;;;;;;;3.30;2.72;;;20.20;99.90;20.30;100076.00;;;;4985448;27;122873;-71
2023/06/30 04:20:34;;;;;;;3.80;2.22;;;20.20;99.90;20.40;100079.00;;;;4989174;27;110812;-71
2023/06/30 04:23:00;;;;;;;2.53;2.33;;;20.20;99.90;20.30;100076.00;;;;4990330;27;108897;-70
2023/06/30 04:25:25;;;;;;;2.30;2.10;;;20.20;99.90;20.40;100081.00;;;;4993285;27;93556;-71
2023/06/30 04:27:51;;;;;;;3.13;2.55;;;20.20;99.90;20.40;100082.00;;;;4989869;27;93889;-71
2023/06/30 04:30:17;;;;;;;3.42;1.95;;;20.20;99.90;20.40;100075.00;;;;4989880;27;109803;-71
2023/06/30 04:32:42;;;;;;;5.10;3.10;;;20.20;99.90;20.40;100082.00;;;;4994460;27;108897;-71
2023/06/30 04:35:08;;;;;;;3.58;2.45;;;20.20;99.90;20.40;100079.00;;;;4993124;27;105849;-71
2023/06/30 04:37:40;;;;;;;2.90;2.38;;;20.30;99.90;20.50;100075.00;;;;4990997;27;93685;-71
2023/06/30 04:40:10;;;;;;;6.20;2.40;;;20.30;99.90;20.50;100078.00;;;;4987449;28;92907;-71
2023/06/30 04:42:36;;;;;;;3.65;2.55;;;20.30;99.90;20.50;100083.00;;;;4974953;27;92986;-71
2023/06/30 04:45:03;;;;;;;5.40;2.60;;;20.30;99.90;20.60;100083.00;;;;4978751;28;94287;-72
2023/06/30 04:47:28;;;;;;;3.95;2.85;;;20.40;99.90;20.60;100082.00;;;;4986743;27;110948;-71
2023/06/30 04:49:54;;;;;;;5.78;2.80;;;20.40;99.90;20.60;100080.00;;;;4991845;27;109493;-71
2023/06/30 04:52:20;;;;;;;3.08;2.88;;;20.40;99.90;20.70;100070.00;;;;4987990;28;108763;-71
2023/06/30 04:54:46;;;;;;;3.33;2.70;;;20.50;99.90;20.70;100062.00;;;;4986624;27;121482;-71
2023/06/30 04:57:12;;;;;;;4.03;2.90;;;20.50;99.90;20.80;100052.00;;;;4986344;27;94008;-70
2023/06/30 04:59:38;;;;;;;4.38;2.58;;;20.60;99.90;20.80;100044.00;;;;4984014;27;110592;-71
2023/06/30 05:02:04;;;;;;;6.35;2.92;;;20.60;99.90;20.90;100044.00;;;;4993255;27;94785;-72
2023/06/30 05:04:30;;;;;;;3.58;3.22;;;20.50;99.90;20.90;100047.00;;;;4985023;27;108225;-71
2023/06/30 05:06:55;;;;;;;9.63;3.03;;;20.70;99.90;20.90;100054.00;;;;4987986;27;93006;-72
2023/06/30 05:09:22;;;;;;;5.75;3.47;;;20.70;99.90;20.90;100053.00;;;;4969315;28;108717;-71
2023/06/30 05:11:48;;;;;;;4.72;4.07;;;20.70;99.90;20.90;100055.00;;;;4989851;27;92946;-70
2023/06/30 05:14:14;;;;;;;4.97;3.05;;;20.70;99.90;20.80;100047.00;;;;4983460;27;104180;-70
2023/06/30 05:16:40;;;;;;;4.68;2.15;;;20.60;99.90;20.70;100038.00;;;;4991393;27;92962;-69
2023/06/30 05:19:06;;;;;;;3.42;3.13;;;20.60;99.90;20.70;100032.00;;;;4988058;27;94225;-69
2023/06/30 05:21:32;;;;;;;4.25;3.47;;;20.50;99.90;20.70;100029.00;;;;4988304;28;107557;-69
2023/06/30 05:23:57;;;;;;;4.00;3.22;;;20.50;99.90;20.70;100040.00;;;;4987618;27;121036;-69
2023/06/30 05:26:23;;;;;;;5.18;2.78;;;20.50;99.90;20.70;100033.00;;;;4991749;27;105911;-69
2023/06/30 05:28:49;;;;;;;4.28;2.95;;;20.50;99.90;20.80;100034.00;;;;4993016;27;110781;-69
2023/06/30 05:31:14;;;;;;;4.75;2.88;;;20.50;99.90;20.80;100036.00;;;;4992732;28;107186;-69
2023/06/30 05:33:40;;;;;;;6.72;4.25;;;20.60;99.90;20.80;100031.00;;;;4990544;27;124179;-69
2023/06/30 05:36:06;;;;;;;4.93;4.10;;;20.60;99.90;20.90;100030.00;;;;4992202;27;93629;-69
2023/06/30 05:38:31;;;;;;;5.00;3.80;;;20.70;99.90;20.90;100026.00;;;;4993233;27;108357;-71
2023/06/30 05:40:58;;;;;;;3.97;3.05;;;20.70;99.90;21.00;100022.00;;;;4978641;28;108006;-70
2023/06/30 05:43:24;;;;;;;10.18;4.78;;;20.80;99.90;21.00;100033.00;;;;4989606;27;94058;-69
2023/06/30 05:45:50;;;;;;;7.15;4.60;;;20.80;99.90;21.00;100028.00;;;;4989378;27;114817;-71
2023/06/30 05:48:16;;;;;;;4.90;3.85;;;20.80;99.90;21.00;100027.00;;;;4991519;27;92997;-70
2023/06/30 05:50:41;;;;;;;7.40;4.55;;;20.80;99.90;21.10;100023.00;;;;4991743;28;98640;-71
2023/06/30 05:53:16;;;;;;;5.75;4.07;;;20.90;99.90;21.10;100010.00;;;;4994627;27;121213;-71
2023/06/30 05:55:41;;;;;;;5.95;4.00;;;20.90;99.90;21.20;100013.00;;;;4988867;27;120240;-71
2023/06/30 05:58:07;;;;;;;5.57;4.18;;;20.90;99.90;21.20;100021.00;;;;4990686;27;101868;-70
2023/06/30 06:00:33;;;;;;;7.40;4.32;;;21.00;99.90;21.30;100010.00;;;;4987354;27;109515;-70
2023/06/30 06:02:58;;;;;;;6.40;4.53;;;21.10;99.90;21.40;100017.00;;;;4987962;27;121363;-71
2023/06/30 06:05:24;;;;;;;5.10;4.60;;;21.10;99.90;21.40;100017.00;;;;4986764;27;93023;-72
2023/06/30 06:07:50;;;;;;;8.07;4.45;;;21.10;99.90;21.40;100019.00;;;;4989105;27;93160;-73
2023/06/30 06:10:15;;;;;;;6.72;4.88;;;21.20;99.90;21.40;100014.00;;;;4989463;27;106615;-73
2023/06/30 06:12:41;;;;;;;8.00;5.57;;;21.20;99.90;21.30;100013.00;;;;4988244;27;122858;-73
2023/06/30 06:15:08;;;;;;;5.68;4.25;;;21.10;99.90;21.20;100014.00;;;;4986810;28;122554;-72
2023/06/30 06:17:33;;;;;;;9.95;4.32;;;21.00;99.90;21.20;100018.00;;;;4986631;27;93171;-74
2023/06/30 06:19:59;;;;;;;6.70;4.65;;;21.00;99.90;21.10;100021.00;;;;4990301;27;108381;-73
2023/06/30 06:22:25;;;;;;;4.65;3.40;;;20.90;99.90;21.10;100030.00;;;;4990021;27;124420;-74
2023/06/30 06:24:50;;;;;;;4.78;3.63;;;20.90;99.90;21.10;100033.00;;;;4987932;27;122408;-73
2023/06/30 06:27:16;;;;;;;9.40;5.28;;;20.90;99.90;21.10;100039.00;;;;4989961;27;108799;-73
2023/06/30 06:29:41;;;;;;;5.13;4.57;;;20.90;99.90;21.10;100037.00;;;;4977106;28;108418;-73
2023/06/30 06:32:08;;;;;;;9.00;5.47;;;20.90;99.90;21.10;100034.00;;;;4985119;27;122913;-72
2023/06/30 06:34:34;;;;;;;7.35;5.15;;;20.90;99.90;21.10;100048.00;;;;4986984;27;93946;-72
2023/06/30 06:37:00;;;;;;;5.32;4.05;;;20.90;99.90;21.00;100051.00;;;;4989379;27;92862;-72
2023/06/30 06:39:26;;;;;;;5.90;4.80;;;20.80;99.90;21.00;100047.00;;;;4992203;27;93005;-71
2023/06/30 06:41:52;;;;;;;5.95;5.38;;;20.90;99.90;21.00;100059.00;;;;4974904;28;92956;-71
2023/06/30 06:44:18;;;;;;;6.78;5.20;;;20.90;99.90;21.10;100059.00;;;;4990752;28;93097;-71
2023/06/30 06:46:43;;;;;;;5.85;5.00;;;20.80;99.90;21.10;100057.00;;;;4991031;27;93225;-72
2023/06/30 06:49:10;;;;;;;6.22;4.28;;;20.90;99.90;21.10;100064.00;;;;4987497;28;108037;-71
2023/06/30 06:51:35;;;;;;;7.38;4.70;;;20.90;99.90;21.10;100060.00;;;;4974075;28;97445;-71
2023/06/30 06:54:01;;;;;;;6.72;4.03;;;20.90;99.90;21.10;100057.00;;;;4993664;27;118848;-71
2023/06/30 06:56:26;;;;;;;5.38;4.45;;;20.90;99.90;21.10;100058.00;;;;4989689;27;97313;-71
2023/06/30 06:58:52;;;;;;;8.77;5.28;;;20.90;99.90;21.10;100053.00;;;;4987101;27;108147;-71
2023/06/30 07:01:18;;;;;;;6.28;4.60;;;20.90;99.90;21.20;100058.00;;;;4988731;27;94486;-71
2023/06/30 07:03:44;;;;;;;9.52;4.57;;;20.90;99.90;21.20;100054.00;;;;4989748;27;116805;-71
2023/06/30 07:06:09;;;;;;;6.00;4.32;;;21.00;99.90;21.20;100061.00;;;;4986066;27;93346;-71
2023/06/30 07:08:35;;;;;;;7.05;5.15;;;21.00;99.90;21.30;100056.00;;;;4988958;27;92992;-71
2023/06/30 07:11:03;;;;;;;11.50;5.38;;;21.00;99.90;21.30;100058.00;;;;4990002;27;93178;-71
2023/06/30 07:13:29;;;;;;;7.00;3.45;;;21.10;99.90;21.40;100060.00;;;;4988257;27;93632;-71
2023/06/30 07:15:54;;;;;;;5.65;4.70;;;21.10;99.90;21.50;100068.00;;;;4991230;27;108988;-71
2023/06/30 07:18:21;;;;;;;7.15;5.00;;;21.20;99.90;21.60;100066.00;;;;4986472;27;109082;-71
2023/06/30 07:20:52;;;;;;;6.85;4.82;;;21.30;99.90;21.70;100064.00;;;;4986518;27;95000;-71
2023/06/30 07:23:18;;;;;;;6.03;4.72;;;21.40;99.90;21.80;100069.00;;;;4990894;27;93839;-71
2023/06/30 07:25:45;;;;;;;5.80;3.88;;;21.50;99.90;21.90;100063.00;;;;4992193;27;92843;-71
2023/06/30 07:28:11;;;;;;;6.28;4.18;;;21.60;99.90;21.90;100070.00;;;;4990088;27;93035;-71
2023/06/30 07:30:36;;;;;;;6.85;4.22;;;21.70;99.90;22.00;100063.00;;;;4990408;27;96148;-71
2023/06/30 07:33:02;;;;;;;5.85;3.83;;;21.80;99.90;22.10;100061.00;;;;4988445;27;93757;-71
2023/06/30 07:35:40;;;;;;;6.43;4.38;;;21.90;99.90;22.20;100056.00;;;;4971684;28;112108;-71
2023/06/30 07:38:06;;;;;;;5.72;4.65;;;21.90;99.90;22.30;100058.00;;;;4993329;27;92926;-71
2023/06/30 07:40:31;;;;;;;7.15;4.10;;;22.00;99.90;22.40;100055.00;;;;4989554;27;114428;-72
2023/06/30 07:42:57;;;;;;;9.02;5.72;;;22.10;99.90;22.50;100045.00;;;;4989069;28;119978;-71
2023/06/30 07:45:23;;;;;;;10.05;4.63;;;22.20;99.90;22.50;100050.00;;;;4991652;27;93090;-71
2023/06/30 07:47:48;;;;;;;5.10;4.05;;;22.30;99.90;22.60;100053.00;;;;4990487;27;107844;-71
2023/06/30 07:50:15;;;;;;;7.32;4.43;;;22.30;99.90;22.60;100050.00;;;;4990668;27;122319;-71
2023/06/30 07:52:50;;;;;;;6.38;4.65;;;22.30;99.90;22.70;100058.00;;;;4993341;27;92812;-71
2023/06/30 07:55:17;;;;;;;9.38;4.75;;;22.40;99.90;22.70;100056.00;;;;4974328;27;92855;-71
2023/06/30 07:57:44;;;;;;;6.40;4.82;;;22.50;99.90;22.80;100065.00;;;;4993863;27;92890;-72
2023/06/30 08:00:15;;;;;;;7.47;5.30;;;22.50;99.90;22.90;100061.00;;;;4994353;27;93208;-72
2023/06/30 08:02:43;;;;;;;5.97;4.35;;;22.60;99.90;22.90;100064.00;;;;4989219;27;93639;-72
2023/06/30 08:05:10;;;;;;;7.50;3.70;;;22.70;99.90;23.00;100064.00;;;;4971539;28;104483;-72
2023/06/30 08:07:36;;;;;;;4.65;3.60;;;22.70;99.90;23.00;100064.00;;;;4988118;27;92847;-72
2023/06/30 08:10:03;;;;;;;7.47;3.75;;;22.80;99.90;23.10;100064.00;;;;4974232;28;93254;-71
2023/06/30 08:12:28;;;;;;;6.72;4.13;;;22.80;99.90;23.20;100068.00;;;;4989975;27;93921;-72
2023/06/30 08:14:54;;;;;;;4.97;3.42;;;22.90;99.90;23.30;100079.00;;;;4985555;27;92917;-72
2023/06/30 08:17:20;;;;;;;6.68;4.65;;;23.00;99.90;23.30;100077.00;;;;4988205;28;107279;-72
2023/06/30 08:19:45;;;;;;;4.90;3.40;;;23.10;99.90;23.40;100084.00;;;;4986498;27;122881;-72
2023/06/30 08:22:15;;;;;;;5.38;3.63;;;23.10;99.90;23.50;100084.00;;;;4990560;27;122328;-72
2023/06/30 08:24:42;;;;;;;7.53;4.07;;;23.20;99.90;23.50;100089.00;;;;4955829;28;93189;-71
2023/06/30 08:27:09;;;;;;;4.45;3.67;;;23.20;99.90;23.40;100086.00;;;;4988166;27;93167;-71
2023/06/30 08:29:35;;;;;;;7.15;4.32;;;23.20;99.90;23.40;100082.00;;;;4990484;28;92395;-71
2023/06/30 08:32:01;;;;;;;6.50;3.95;;;23.20;99.90;23.40;100087.00;;;;4990577;27;113287;-72
2023/06/30 08:34:27;;;;;;;4.63;3.40;;;23.20;99.90;23.40;100091.00;;;;4987890;27;111068;-71
2023/06/30 08:36:54;;;;;;;6.43;4.05;;;23.20;99.90;23.40;100092.00;;;;4989154;27;108752;-71
2023/06/30 08:39:20;;;;;;;5.85;4.15;;;23.20;99.90;23.40;100091.00;;;;4988131;27;94176;-71
2023/06/30 08:41:49;;;;;;;4.75;3.80;;;23.10;99.90;23.40;100095.00;;;;4989114;27;102788;-71
2023/06/30 08:44:17;;;;;;;5.82;4.45;;;23.10;99.90;23.30;100097.00;;;;4973267;28;92853;-71
2023/06/30 08:46:43;;;;;;;8.48;4.22;;;23.10;99.90;23.30;100095.00;;;;4970823;27;93542;-71
2023/06/30 08:49:09;;;;;;;5.07;4.07;;;23.10;99.90;23.30;100089.00;;;;4965944;28;121843;-72
2023/06/30 08:51:36;;;;;;;4.97;3.80;;;23.10;99.90;23.30;100088.00;;;;4987187;27;122020;-71
2023/06/30 08:54:02;;;;;;;6.32;4.03;;;23.00;99.90;23.30;100093.00;;;;4973958;28;110189;-71
2023/06/30 08:56:30;;;;;;;6.53;3.75;;;23.00;99.90;23.30;100087.00;;;;4965512;28;107907;-71
2023/06/30 08:58:55;;;;;;;10.90;4.65;;;23.00;99.90;23.30;100078.00;;;;4980037;27;95003;-71
2023/06/30 09:01:22;;;;;;;4.55;3.55;;;23.00;99.90;23.30;100077.00;;;;4991532;27;121789;-70
2023/06/30 09:03:47;;;;;;;5.20;3.85;;;23.00;99.90;23.40;100077.00;;;;4989989;27;109697;-71
2023/06/30 09:06:14;;;;;;;6.53;4.65;;;23.10;99.90;23.50;100079.00;;;;4989936;27;108142;-71
2023/06/30 09:09:03;;;;;;;4.50;3.92;;;23.20;99.90;23.70;100082.00;;;;4972550;28;123524;-70
2023/06/30 09:11:31;;;;;;;5.93;4.10;;;23.30;99.90;23.80;100076.00;;;;4977767;28;93095;-70
2023/06/30 09:14:01;;;;;;;6.03;4.53;;;23.40;99.90;23.90;100068.00;;;;4977727;27;93126;-71
2023/06/30 09:16:30;;;;;;;7.32;4.43;;;23.60;99.90;24.00;100064.00;;;;4969294;28;92735;-71
2023/06/30 09:18:56;;;;;;;5.35;3.45;;;23.70;99.90;24.10;100064.00;;;;4991666;27;98858;-71
2023/06/30 09:21:22;;;;;;;6.45;4.10;;;23.70;99.90;24.10;100074.00;;;;4991358;27;121800;-71
2023/06/30 09:23:48;;;;;;;4.22;3.80;;;23.80;99.90;24.20;100067.00;;;;4994859;27;92996;-71
2023/06/30 09:26:16;;;;;;;4.53;3.72;;;23.90;99.90;24.20;100082.00;;;;4976897;28;93954;-70
2023/06/30 09:28:43;;;;;;;9.55;5.35;;;23.90;99.90;24.20;100079.00;;;;4996770;27;93745;-70
2023/06/30 09:31:09;;;;;;;4.30;3.85;;;23.90;99.90;24.20;100080.00;;;;4978134;28;93300;-70
2023/06/30 09:33:35;;;;;;;8.82;4.35;;;23.90;99.90;24.10;100077.00;;;;4993400;27;92988;-69
2023/06/30 09:36:03;;;;;;;7.90;4.57;;;23.90;99.90;24.10;100074.00;;;;4994125;27;92833;-70
2023/06/30 09:38:29;;;;;;;3.78;3.47;;;23.80;99.90;24.00;100079.00;;;;4989604;27;96956;-70
2023/06/30 09:40:56;;;;;;;8.57;4.75;;;23.80;99.90;24.00;100079.00;;;;4990832;27;96490;-70
2023/06/30 09:43:24;;;;;;;6.63;4.28;;;23.80;99.90;24.00;100064.00;;;;4990879;27;92169;-71
2023/06/30 09:45:59;;;;;;;6.22;4.63;;;23.80;99.90;24.10;100050.00;;;;4989512;27;100530;-70
2023/06/30 09:48:43;;;;;;;7.32;4.38;;;23.80;99.90;24.30;100054.00;;;;4988915;27;93745;-71
2023/06/30 09:51:09;;;;;;;7.10;4.65;;;24.00;99.90;24.40;100059.00;;;;4989750;27;94205;-70
2023/06/30 09:53:42;;;;;;;6.63;4.00;;;24.10;99.90;24.50;100062.00;;;;4974808;28;92875;-70
2023/06/30 09:56:08;;;;;;;7.57;4.70;;;24.20;99.70;24.60;100061.00;;;;4988801;27;92858;-71
2023/06/30 09:58:35;;;;;;;6.75;3.75;;;24.30;99.70;24.70;100058.00;;;;4968582;28;93133;-72
2023/06/30 10:01:01;;;;;;;6.72;4.00;;;24.40;99.20;24.90;100068.00;;;;4974815;28;93912;-72
2023/06/30 10:03:27;;;;;;;4.40;3.95;;;24.50;99.00;25.00;100060.00;;;;4991008;27;111726;-72
2023/06/30 10:05:53;;;;;;;5.93;4.45;;;24.70;98.60;25.00;100058.00;;;;4991121;27;107903;-72
2023/06/30 10:08:22;;;;;;;6.30;4.40;;;24.60;98.10;25.00;100066.00;;;;4973484;28;121053;-72
2023/06/30 10:10:56;;;;;;;7.40;4.55;;;24.70;98.10;25.20;100044.00;;;;4989532;27;93493;-72
2023/06/30 10:13:22;;;;;;;5.43;4.30;;;24.80;98.00;25.40;100048.00;;;;4989150;27;93137;-72
2023/06/30 10:15:49;;;;;;;7.45;4.60;;;25.00;97.40;25.70;100051.00;;;;4974375;27;98957;-72
2023/06/30 10:18:17;;;;;;;6.13;4.03;;;25.20;97.10;26.00;100046.00;;;;4971664;28;121817;-72
2023/06/30 10:20:43;;;;;;;5.20;3.85;;;25.40;97.00;26.20;100051.00;;;;4988670;27;93489;-72
2023/06/30 10:23:09;;;;;;;4.00;3.58;;;25.70;96.30;26.30;100059.00;;;;4989876;27;92864;-71
2023/06/30 10:25:37;;;;;;;4.72;3.63;;;25.80;95.80;26.40;100052.00;;;;4988226;27;108133;-72
2023/06/30 10:28:06;;;;;;;4.45;4.05;;;26.00;95.50;26.50;100048.00;;;;4974242;28;93009;-72
2023/06/30 10:30:32;;;;;;;6.43;3.88;;;26.10;94.90;26.70;100045.00;;;;4989842;27;93828;-72
2023/06/30 10:32:58;;;;;;;3.67;2.88;;;26.30;94.20;26.90;100047.00;;;;4989566;27;92226;-72
2023/06/30 10:35:24;;;;;;;6.18;3.60;;;26.40;94.00;27.10;100050.00;;;;4989536;27;108617;-72
2023/06/30 10:37:50;;;;;;;5.32;3.15;;;26.60;93.70;27.40;100042.00;;;;4973293;27;124038;-72
2023/06/30 10:40:27;;;;;;;4.70;2.80;;;26.90;93.50;27.80;100042.00;;;;4972087;28;122711;-72